Time;durP1;ratioP1;P1;durP2;ratioP2;P2;SDS_P1;SDS_P2;PMS_P1;PMS_P2;Temp;Humidity;BMP_temperature;BMP_pressure;BME280_temperature;BME280_humidity;BME280_pressure;Samples;Min_cycle;Max_cycle;Signal;HPM_P1;HPM_P2
2022/08/26 00:01:40;;;;;;;50.47;44.90;;;20.30;99.90;;;;;;5034846;28;20078;-88
2022/08/26 00:04:07;;;;;;;48.00;42.92;;;20.30;99.90;;;;;;5073638;28;20045;-89
2022/08/26 00:06:32;;;;;;;48.55;43.35;;;20.40;99.90;;;;;;5051996;28;20574;-89
2022/08/26 00:08:58;;;;;;;51.47;45.88;;;20.30;99.90;;;;;;5031491;28;20040;-87
2022/08/26 00:11:26;;;;;;;50.15;42.95;;;20.30;99.90;;;;;;5033716;28;20472;-89
2022/08/26 00:13:55;;;;;;;51.63;45.72;;;20.30;99.90;;;;;;5057402;28;20511;-89
2022/08/26 00:16:22;;;;;;;49.90;44.60;;;20.30;99.90;;;;;;5030526;28;20094;-88
2022/08/26 00:18:48;;;;;;;50.03;44.58;;;20.20;99.90;;;;;;5063860;28;20465;-88
2022/08/26 00:21:14;;;;;;;51.65;45.72;;;20.30;99.90;;;;;;5029923;28;20193;-90
2022/08/26 00:23:40;;;;;;;50.80;45.13;;;20.20;99.90;;;;;;5050533;28;20632;-89
2022/08/26 00:26:06;;;;;;;49.50;43.65;;;20.20;99.90;;;;;;5029700;28;20041;-89
2022/08/26 00:28:34;;;;;;;44.88;39.65;;;20.20;99.90;;;;;;5056200;28;20203;-88
2022/08/26 00:30:59;;;;;;;52.13;44.67;;;20.10;99.90;;;;;;5034576;28;20040;-87
2022/08/26 00:33:25;;;;;;;50.50;45.10;;;20.10;99.90;;;;;;5051407;28;20400;-88
2022/08/26 00:35:51;;;;;;;48.88;42.42;;;20.20;99.90;;;;;;5056817;28;20044;-88
2022/08/26 00:38:17;;;;;;;50.30;43.10;;;20.30;99.90;;;;;;5035967;28;20032;-88
2022/08/26 00:40:46;;;;;;;51.00;42.92;;;20.30;99.90;;;;;;5065014;28;20056;-88
2022/08/26 00:43:12;;;;;;;46.08;40.55;;;20.30;99.90;;;;;;5033537;28;20036;-88
2022/08/26 00:45:51;;;;;;;44.05;39.15;;;20.30;99.90;;;;;;5061410;28;20431;-88
2022/08/26 00:48:21;;;;;;;52.78;39.03;;;20.40;99.90;;;;;;5044935;28;20041;-88
2022/08/26 00:50:58;;;;;;;50.97;39.15;;;20.40;99.90;;;;;;5056050;28;20048;-88
2022/08/26 00:53:29;;;;;;;50.58;37.50;;;20.50;99.90;;;;;;5058675;28;20036;-88
2022/08/26 00:56:08;;;;;;;45.90;37.38;;;20.50;99.90;;;;;;5055892;28;20025;-89
2022/08/26 00:58:37;;;;;;;49.33;36.17;;;20.50;99.90;;;;;;5043045;28;20115;-87
2022/08/26 01:01:04;;;;;;;47.20;34.63;;;20.50;99.90;;;;;;5048211;28;20550;-88
2022/08/26 01:03:32;;;;;;;43.42;32.58;;;20.60;99.90;;;;;;5031709;28;20028;-88
2022/08/26 01:05:59;;;;;;;45.70;32.65;;;20.60;99.90;;;;;;5058439;28;20075;-89
2022/08/26 01:08:25;;;;;;;43.63;33.05;;;20.50;99.90;;;;;;5063090;28;20098;-87
2022/08/26 01:10:52;;;;;;;44.53;32.10;;;20.60;99.90;;;;;;5041454;28;20033;-87
2022/08/26 01:13:18;;;;;;;46.95;31.27;;;20.60;99.90;;;;;;5052082;28;20116;-88
2022/08/26 01:15:47;;;;;;;44.72;30.90;;;20.70;99.90;;;;;;5057654;28;20483;-88
2022/08/26 01:18:14;;;;;;;41.58;29.60;;;20.70;99.90;;;;;;5030622;28;20039;-86
2022/08/26 01:20:45;;;;;;;45.10;30.88;;;20.60;99.90;;;;;;5056228;28;20145;-88
2022/08/26 01:23:11;;;;;;;42.28;29.95;;;20.70;99.90;;;;;;5053525;28;20307;-87
2022/08/26 01:25:41;;;;;;;49.53;31.30;;;20.60;99.90;;;;;;5062014;28;20654;-88
2022/08/26 01:28:10;;;;;;;42.08;29.73;;;20.60;99.90;;;;;;5049441;28;20124;-87
2022/08/26 01:30:39;;;;;;;42.53;29.48;;;20.60;99.90;;;;;;5033160;28;20064;-87
2022/08/26 01:33:09;;;;;;;43.95;29.70;;;20.60;99.90;;;;;;5029960;28;20045;-86
2022/08/26 01:35:36;;;;;;;45.53;30.10;;;20.60;99.90;;;;;;5050404;28;20135;-88
2022/08/26 01:38:03;;;;;;;44.22;30.98;;;20.60;99.90;;;;;;5041641;28;20087;-88
2022/08/26 01:40:35;;;;;;;41.78;28.38;;;20.70;99.90;;;;;;5025878;28;20037;-87
2022/08/26 01:43:04;;;;;;;37.97;27.40;;;20.60;99.90;;;;;;5072455;28;20088;-89
2022/08/26 01:45:34;;;;;;;44.15;28.35;;;20.50;99.90;;;;;;5065779;28;20037;-88
2022/08/26 01:48:03;;;;;;;37.88;27.48;;;20.50;99.90;;;;;;5055988;28;20417;-88
2022/08/26 01:50:34;;;;;;;40.08;28.13;;;20.60;99.90;;;;;;5056122;28;20456;-87
2022/08/26 01:53:07;;;;;;;39.03;27.52;;;20.60;99.90;;;;;;5053251;28;20044;-88
2022/08/26 01:55:36;;;;;;;49.10;27.27;;;20.50;99.90;;;;;;5030190;28;20044;-87
2022/08/26 01:58:06;;;;;;;41.78;25.48;;;20.50;99.90;;;;;;5043543;28;20040;-86
2022/08/26 02:00:34;;;;;;;38.83;25.38;;;20.60;99.90;;;;;;5031353;28;20696;-88
2022/08/26 02:03:16;;;;;;;35.22;25.98;;;20.50;99.90;;;;;;5032895;28;20072;-88
2022/08/26 02:06:05;;;;;;;36.72;24.23;;;20.50;99.90;;;;;;5055543;28;20045;-87
2022/08/26 02:08:44;;;;;;;40.90;25.92;;;20.40;99.90;;;;;;5044669;28;20048;-88
2022/08/26 02:11:10;;;;;;;39.17;26.33;;;20.50;99.90;;;;;;5061017;28;20036;-88
2022/08/26 02:13:42;;;;;;;39.90;26.52;;;20.50;99.90;;;;;;5058867;28;20706;-89
2022/08/26 02:16:09;;;;;;;36.80;26.52;;;20.50;99.90;;;;;;5044190;28;20037;-87
2022/08/26 02:18:39;;;;;;;40.63;25.70;;;20.60;99.90;;;;;;5061622;28;20034;-89
2022/08/26 02:21:05;;;;;;;45.30;27.33;;;20.60;99.90;;;;;;5045557;28;20037;-88
2022/08/26 02:23:31;;;;;;;39.40;26.63;;;20.50;99.90;;;;;;5049592;28;20064;-87
2022/08/26 02:26:13;;;;;;;39.20;26.55;;;20.50;99.90;;;;;;5032097;28;20061;-88
2022/08/26 02:28:58;;;;;;;40.58;27.35;;;20.50;99.90;;;;;;5077282;28;20183;-88
2022/08/26 02:31:27;;;;;;;36.22;28.17;;;20.50;99.90;;;;;;5031616;28;20496;-87
2022/08/26 02:33:53;;;;;;;39.90;28.40;;;20.60;99.90;;;;;;5030806;28;20456;-87
2022/08/26 02:36:25;;;;;;;45.10;29.38;;;20.50;99.90;;;;;;5036241;28;20204;-89
2022/08/26 02:38:50;;;;;;;38.85;28.85;;;20.60;99.90;;;;;;5079206;28;20041;-87
2022/08/26 02:41:17;;;;;;;42.83;28.85;;;20.60;99.90;;;;;;5038228;28;20045;-88
2022/08/26 02:43:43;;;;;;;42.72;28.58;;;20.50;99.90;;;;;;5042572;28;20037;-88
2022/08/26 02:46:08;;;;;;;46.83;28.98;;;20.50;99.90;;;;;;5056499;28;20101;-89
2022/08/26 02:48:34;;;;;;;40.38;26.50;;;20.50;99.90;;;;;;5060113;28;20522;-88
2022/08/26 02:51:00;;;;;;;39.20;27.95;;;20.60;99.90;;;;;;5047720;28;20038;-87
2022/08/26 02:53:26;;;;;;;42.42;27.50;;;20.50;99.90;;;;;;5057295;28;20047;-88
2022/08/26 02:55:52;;;;;;;50.70;29.05;;;20.50;99.90;;;;;;5039729;28;20044;-87
2022/08/26 02:58:19;;;;;;;43.75;27.98;;;20.50;99.90;;;;;;5029584;28;20040;-88
2022/08/26 03:00:48;;;;;;;44.75;27.27;;;20.40;99.90;;;;;;5023150;28;20043;-88
2022/08/26 03:03:14;;;;;;;44.97;28.70;;;20.60;99.90;;;;;;5032645;28;20066;-88
2022/08/26 03:05:41;;;;;;;44.13;29.63;;;20.50;99.90;;;;;;5043129;28;20038;-88
2022/08/26 03:08:10;;;;;;;43.85;28.08;;;20.40;99.90;;;;;;5050449;28;20057;-87
2022/08/26 03:10:37;;;;;;;42.28;28.58;;;20.40;99.90;;;;;;5031346;28;20045;-88
2022/08/26 03:13:02;;;;;;;45.75;28.05;;;20.40;99.90;;;;;;5027319;28;20067;-89
2022/08/26 03:15:28;;;;;;;42.90;28.27;;;20.40;99.90;;;;;;5026371;28;20075;-88
2022/08/26 03:17:54;;;;;;;41.53;28.75;;;20.50;99.90;;;;;;5059102;28;20094;-88
2022/08/26 03:20:20;;;;;;;43.60;29.40;;;20.40;99.90;;;;;;5057861;28;20047;-88
2022/08/26 03:22:46;;;;;;;43.83;27.98;;;20.50;99.90;;;;;;5049056;28;20032;-89
2022/08/26 03:25:14;;;;;;;44.53;27.05;;;20.40;99.90;;;;;;5058734;28;20101;-87
2022/08/26 03:27:43;;;;;;;42.58;26.33;;;20.60;99.90;;;;;;5061935;28;20760;-87
2022/08/26 03:32:54;;;;;;;34.83;25.30;;;20.50;99.90;;;;;;5048067;28;20059;-90
2022/08/26 03:35:20;;;;;;;40.47;25.23;;;20.40;99.90;;;;;;5030152;28;20040;-88
2022/08/26 03:37:46;;;;;;;39.97;24.05;;;20.50;99.90;;;;;;5029265;28;20043;-89
2022/08/26 03:40:12;;;;;;;37.30;22.83;;;20.50;99.90;;;;;;5060586;28;20151;-89
2022/08/26 03:42:40;;;;;;;40.22;23.00;;;20.50;99.90;;;;;;5035738;28;20045;-88
2022/08/26 03:45:09;;;;;;;35.83;23.25;;;20.40;99.90;;;;;;5049814;28;20122;-88
2022/08/26 03:47:35;;;;;;;39.72;24.05;;;20.40;99.90;;;;;;5034524;28;20040;-89
2022/08/26 03:50:01;;;;;;;35.88;22.98;;;20.40;99.90;;;;;;5048194;28;20849;-88
2022/08/26 03:52:28;;;;;;;33.70;23.48;;;20.50;99.90;;;;;;5054742;28;20036;-88
2022/08/26 03:54:54;;;;;;;34.83;23.33;;;20.40;99.90;;;;;;5031792;28;20047;-88
2022/08/26 03:57:20;;;;;;;38.47;22.88;;;20.40;99.90;;;;;;5063320;28;20124;-88
2022/08/26 03:59:45;;;;;;;35.42;22.02;;;20.40;99.90;;;;;;5059773;28;20041;-89
2022/08/26 04:02:11;;;;;;;36.65;22.48;;;20.50;99.90;;;;;;5033100;28;20572;-89
2022/08/26 04:04:37;;;;;;;31.52;22.20;;;20.40;99.90;;;;;;5033726;28;20105;-89
2022/08/26 04:07:06;;;;;;;29.70;20.58;;;20.40;99.90;;;;;;5031055;28;20155;-89
2022/08/26 04:09:33;;;;;;;31.90;20.40;;;20.40;99.90;;;;;;5059046;28;22043;-88
2022/08/26 04:11:58;;;;;;;32.28;21.75;;;20.40;99.90;;;;;;5057583;28;20041;-89
2022/08/26 04:14:26;;;;;;;36.38;21.98;;;20.30;99.90;;;;;;5056444;28;20052;-88
2022/08/26 04:16:53;;;;;;;26.88;19.77;;;20.30;99.90;;;;;;5057005;28;20060;-88
2022/08/26 04:19:21;;;;;;;32.83;21.20;;;20.30;99.90;;;;;;5030037;28;20115;-88
2022/08/26 04:21:51;;;;;;;27.77;19.70;;;20.30;99.90;;;;;;5041667;28;20025;-88
2022/08/26 04:24:18;;;;;;;29.30;19.83;;;20.20;99.90;;;;;;5056535;28;20029;-88
2022/08/26 04:26:44;;;;;;;31.30;19.92;;;20.30;99.90;;;;;;5050320;28;20045;-87
2022/08/26 04:29:13;;;;;;;32.15;20.35;;;20.20;99.90;;;;;;5082355;28;20033;-88
2022/08/26 04:31:40;;;;;;;27.25;18.42;;;20.20;99.90;;;;;;5063686;28;20037;-90
2022/08/26 04:34:09;;;;;;;31.35;20.73;;;20.30;99.90;;;;;;5029147;28;20105;-88
2022/08/26 04:36:36;;;;;;;25.65;19.13;;;20.20;99.90;;;;;;5074396;28;20067;-88
2022/08/26 04:39:03;;;;;;;28.58;18.40;;;20.20;99.90;;;;;;5049292;28;20111;-87
2022/08/26 04:41:30;;;;;;;27.17;18.77;;;20.30;99.90;;;;;;5048504;28;20069;-91
2022/08/26 04:43:58;;;;;;;31.02;19.95;;;20.10;99.90;;;;;;5047867;28;20055;-88
2022/08/26 04:46:24;;;;;;;27.17;18.55;;;20.10;99.90;;;;;;5030557;28;20485;-87
2022/08/26 04:48:52;;;;;;;30.48;19.73;;;20.20;99.90;;;;;;5026483;28;20033;-89
2022/08/26 04:51:19;;;;;;;27.70;19.42;;;20.10;99.90;;;;;;5035637;28;20033;-89
2022/08/26 04:53:45;;;;;;;29.70;18.45;;;20.10;99.90;;;;;;5052572;28;20048;-89
2022/08/26 04:56:13;;;;;;;27.73;18.70;;;20.10;99.90;;;;;;5056153;28;20056;-88
2022/08/26 04:58:40;;;;;;;32.33;19.05;;;20.20;99.90;;;;;;5031986;28;20079;-87
2022/08/26 05:01:07;;;;;;;27.38;19.85;;;20.10;99.90;;;;;;5043927;28;20511;-88
2022/08/26 05:03:33;;;;;;;36.25;20.13;;;20.00;99.90;;;;;;5063087;28;20028;-89
2022/08/26 05:06:04;;;;;;;31.30;20.05;;;20.10;99.90;;;;;;5025488;28;20063;-88
2022/08/26 05:08:30;;;;;;;31.70;19.70;;;20.10;99.90;;;;;;5052433;28;20041;-88
2022/08/26 05:10:56;;;;;;;30.08;19.25;;;20.10;99.90;;;;;;5047950;28;20038;-87
2022/08/26 05:13:24;;;;;;;30.75;19.48;;;20.10;99.90;;;;;;5033263;28;20044;-88
2022/08/26 05:15:50;;;;;;;32.35;19.00;;;20.20;99.90;;;;;;5029602;28;20040;-88
2022/08/26 05:18:19;;;;;;;33.40;20.00;;;20.10;99.90;;;;;;5050649;28;20059;-87
2022/08/26 05:20:47;;;;;;;31.70;20.73;;;20.00;99.90;;;;;;5057306;28;20116;-88
2022/08/26 05:23:15;;;;;;;33.33;19.42;;;20.10;99.90;;;;;;5046702;28;20032;-88
2022/08/26 05:25:46;;;;;;;32.70;18.70;;;20.10;99.90;;;;;;5032749;28;20060;-88
2022/08/26 05:28:14;;;;;;;32.85;18.00;;;20.10;99.90;;;;;;5078755;28;20045;-88
2022/08/26 05:30:40;;;;;;;29.25;18.30;;;20.20;99.90;;;;;;5032280;28;20041;-87
2022/08/26 05:33:08;;;;;;;31.95;18.20;;;20.20;99.90;;;;;;5033283;28;20049;-87
2022/08/26 05:35:37;;;;;;;33.05;18.92;;;20.10;99.90;;;;;;5036263;28;20029;-89
2022/08/26 05:38:08;;;;;;;29.75;18.77;;;20.10;99.90;;;;;;5076058;28;20040;-88
2022/08/26 05:40:39;;;;;;;30.50;19.15;;;20.20;99.90;;;;;;5056862;28;20040;-89
2022/08/26 05:43:09;;;;;;;33.22;18.88;;;20.20;99.90;;;;;;5061876;28;20076;-88
2022/08/26 05:45:39;;;;;;;35.33;19.58;;;20.30;99.90;;;;;;5077714;28;20040;-88
2022/08/26 05:48:07;;;;;;;34.58;18.88;;;20.30;99.90;;;;;;5046327;28;20120;-87
2022/08/26 05:50:41;;;;;;;36.63;18.67;;;20.40;99.90;;;;;;5029886;28;20064;-88
2022/08/26 05:53:08;;;;;;;31.45;18.27;;;20.20;99.90;;;;;;5054875;28;20303;-88
2022/08/26 05:55:42;;;;;;;29.83;17.50;;;20.40;99.90;;;;;;5062473;28;20212;-89
2022/08/26 05:58:09;;;;;;;31.73;18.33;;;20.40;99.90;;;;;;5049733;28;20045;-88
2022/08/26 06:00:34;;;;;;;26.80;16.83;;;20.30;99.90;;;;;;5062148;28;20064;-87
2022/08/26 06:03:00;;;;;;;29.33;16.08;;;20.50;99.90;;;;;;5036158;28;20454;-87
2022/08/26 06:05:26;;;;;;;28.10;17.48;;;20.40;99.90;;;;;;5035497;28;20040;-87
2022/08/26 06:08:10;;;;;;;23.80;16.05;;;20.40;99.90;;;;;;5035381;28;20140;-87
2022/08/26 06:11:05;;;;;;;26.73;15.02;;;20.50;99.90;;;;;;5062785;28;20144;-88
2022/08/26 06:13:32;;;;;;;32.25;14.52;;;20.60;99.90;;;;;;5065232;28;20033;-89
2022/08/26 06:15:58;;;;;;;21.80;12.38;;;20.50;99.90;;;;;;5024152;28;20120;-87
2022/08/26 06:18:51;;;;;;;24.17;11.88;;;20.50;99.90;;;;;;5039062;28;20420;-89
2022/08/26 06:21:28;;;;;;;21.42;11.38;;;20.60;99.90;;;;;;5034412;28;20389;-88
2022/08/26 06:26:55;;;;;;;20.73;11.30;;;20.60;99.90;;;;;;5039479;28;20424;-89
2022/08/26 06:29:23;;;;;;;21.65;11.43;;;20.70;99.90;;;;;;5031019;28;20044;-88
2022/08/26 06:31:49;;;;;;;20.73;11.88;;;20.70;99.90;;;;;;5047902;28;20082;-89
2022/08/26 06:34:14;;;;;;;24.13;11.43;;;20.90;99.90;;;;;;5062239;28;20123;-87
2022/08/26 06:36:46;;;;;;;23.60;10.38;;;20.90;99.90;;;;;;5026282;28;20056;-88
2022/08/26 06:39:13;;;;;;;18.13;9.80;;;20.90;99.90;;;;;;5057733;28;20044;-89
2022/08/26 06:41:39;;;;;;;19.63;9.75;;;20.90;99.90;;;;;;5023276;28;20056;-88
2022/08/26 06:44:06;;;;;;;15.40;9.85;;;21.00;99.90;;;;;;5048046;28;20077;-89
2022/08/26 06:46:33;;;;;;;15.90;9.25;;;21.00;99.90;;;;;;5028161;28;20041;-88
2022/08/26 06:48:58;;;;;;;20.05;9.75;;;21.00;99.90;;;;;;5028520;28;20049;-88
2022/08/26 06:51:27;;;;;;;17.48;9.40;;;21.00;99.90;;;;;;5030925;28;20480;-88
2022/08/26 06:53:54;;;;;;;19.83;9.75;;;20.90;99.90;;;;;;5059868;28;20060;-88
2022/08/26 06:56:23;;;;;;;18.33;10.20;;;21.00;99.90;;;;;;5058391;28;20045;-89
2022/08/26 06:58:49;;;;;;;19.45;9.80;;;20.90;99.90;;;;;;5044240;28;20036;-88
2022/08/26 07:01:18;;;;;;;18.30;9.80;;;20.90;99.90;;;;;;5057567;28;20553;-87
2022/08/26 07:03:45;;;;;;;22.13;9.90;;;20.80;99.90;;;;;;5032574;28;20191;-87
2022/08/26 07:06:11;;;;;;;19.10;9.70;;;20.80;99.90;;;;;;5073535;28;20512;-88
2022/08/26 07:08:37;;;;;;;19.48;9.20;;;20.70;99.90;;;;;;5052575;28;20151;-88
2022/08/26 07:11:09;;;;;;;16.63;8.70;;;20.70;99.90;;;;;;5067436;28;20048;-88
2022/08/26 07:13:36;;;;;;;20.25;9.82;;;20.70;99.90;;;;;;5033594;28;20107;-87
2022/08/26 07:16:06;;;;;;;14.73;8.13;;;20.80;99.90;;;;;;5053504;28;20317;-87
2022/08/26 07:18:35;;;;;;;18.20;7.22;;;20.80;99.90;;;;;;5050909;28;20514;-88
2022/08/26 07:21:06;;;;;;;16.92;7.32;;;20.80;99.90;;;;;;5033802;28;20045;-88
2022/08/26 07:23:33;;;;;;;20.05;7.38;;;20.70;99.90;;;;;;5050759;28;20029;-88
2022/08/26 07:26:03;;;;;;;15.13;7.28;;;20.80;99.90;;;;;;5034513;28;20512;-86
2022/08/26 07:28:32;;;;;;;16.02;7.05;;;20.80;99.90;;;;;;5035365;28;20184;-88
2022/08/26 07:30:59;;;;;;;19.65;7.47;;;20.90;99.90;;;;;;5035452;28;20048;-87
2022/08/26 07:33:24;;;;;;;19.02;7.50;;;20.80;99.90;;;;;;5069005;28;20156;-89
2022/08/26 07:35:50;;;;;;;13.85;6.80;;;20.90;99.90;;;;;;5049751;28;20147;-88
2022/08/26 07:38:16;;;;;;;14.70;6.90;;;20.90;99.90;;;;;;5031734;28;20057;-86
2022/08/26 07:40:42;;;;;;;16.38;6.05;;;20.90;99.90;;;;;;5029832;28;20128;-88
2022/08/26 07:43:08;;;;;;;19.25;6.72;;;21.20;99.90;;;;;;5072072;28;20067;-87
2022/08/26 07:45:37;;;;;;;14.15;6.03;;;21.10;99.90;;;;;;5031683;28;20336;-88
2022/08/26 07:48:04;;;;;;;14.45;5.90;;;21.00;99.90;;;;;;5037287;28;20041;-86
2022/08/26 07:50:29;;;;;;;15.07;6.07;;;20.90;99.90;;;;;;5056869;28;20040;-88
2022/08/26 07:52:55;;;;;;;15.95;5.43;;;20.90;99.90;;;;;;5079869;28;20044;-88
2022/08/26 07:55:21;;;;;;;11.48;5.57;;;20.80;99.90;;;;;;5033200;28;20043;-88
2022/08/26 07:57:47;;;;;;;13.25;5.72;;;20.80;99.90;;;;;;5048092;28;20037;-86
2022/08/26 08:00:15;;;;;;;13.40;5.75;;;20.90;99.90;;;;;;5033620;28;20111;-87
2022/08/26 08:02:43;;;;;;;12.18;4.80;;;20.90;99.90;;;;;;5068415;28;20143;-87
2022/08/26 08:05:11;;;;;;;12.43;5.25;;;20.70;99.90;;;;;;5028405;28;20670;-90
2022/08/26 08:07:37;;;;;;;12.93;5.05;;;20.70;99.90;;;;;;5029051;28;20202;-88
2022/08/26 08:10:07;;;;;;;13.55;4.90;;;20.70;99.90;;;;;;5055029;28;20048;-87
2022/08/26 08:12:32;;;;;;;11.07;3.92;;;20.70;99.90;;;;;;5028135;28;20095;-88
2022/08/26 08:14:58;;;;;;;10.15;3.67;;;20.80;99.90;;;;;;5028216;28;20140;-88
2022/08/26 08:17:24;;;;;;;9.20;3.45;;;20.70;99.90;;;;;;5032584;28;20408;-87
2022/08/26 08:19:49;;;;;;;11.80;3.60;;;20.80;99.90;;;;;;5050489;28;20158;-88
2022/08/26 08:22:16;;;;;;;10.27;3.50;;;20.80;99.90;;;;;;5056316;28;20099;-88
2022/08/26 08:24:42;;;;;;;10.38;3.33;;;20.90;99.90;;;;;;5025386;28;20489;-88
2022/08/26 08:27:09;;;;;;;12.57;3.38;;;20.80;99.90;;;;;;5051291;28;20048;-88
2022/08/26 08:29:38;;;;;;;10.43;3.08;;;20.70;99.90;;;;;;5039630;28;20045;-88
2022/08/26 08:32:04;;;;;;;11.48;3.20;;;20.80;99.90;;;;;;5054922;28;20087;-87
2022/08/26 08:34:30;;;;;;;8.63;3.58;;;20.80;99.90;;;;;;5031960;28;20044;-88
2022/08/26 08:36:56;;;;;;;15.90;3.40;;;21.00;99.90;;;;;;5035837;28;20099;-88
2022/08/26 08:39:22;;;;;;;11.50;3.35;;;21.10;99.90;;;;;;5072227;28;20493;-86
2022/08/26 08:42:14;;;;;;;10.32;3.58;;;21.20;99.90;;;;;;5026704;28;20091;-85
2022/08/26 08:44:44;;;;;;;13.00;3.58;;;21.10;99.90;;;;;;5050793;28;20038;-86
2022/08/26 08:47:30;;;;;;;9.23;3.00;;;21.30;99.90;;;;;;5070539;28;20025;-86
2022/08/26 08:49:58;;;;;;;;;;;21.10;88.20;;;;;;5049422;28;20036;-87
2022/08/26 08:52:33;;;;;;;10.25;2.70;;;21.10;73.10;;;;;;5051817;28;20307;-87
2022/08/26 08:55:00;;;;;;;12.00;2.63;;;21.10;34.60;;;;;;5015644;28;20048;-86
2022/08/26 08:58:11;;;;;;;6.90;2.88;;;20.90;99.90;;;;;;5070095;28;20103;-85
2022/08/26 09:00:49;;;;;;;8.32;2.55;;;20.80;99.90;;;;;;5045389;28;20064;-87
2022/08/26 09:03:23;;;;;;;7.63;2.50;;;20.90;99.90;;;;;;5061343;28;20051;-85
2022/08/26 09:05:52;;;;;;;8.23;2.53;;;21.00;99.90;;;;;;5021614;28;20085;-86
2022/08/26 09:08:23;;;;;;;9.57;2.90;;;20.80;99.90;;;;;;5055153;28;20041;-86
2022/08/26 09:10:58;;;;;;;10.43;2.70;;;20.90;99.90;;;;;;5057089;28;20076;-86
2022/08/26 09:13:24;;;;;;;13.27;2.72;;;21.00;99.90;;;;;;5062945;28;20045;-87
2022/08/26 09:15:53;;;;;;;11.20;2.75;;;20.80;99.90;;;;;;5022407;28;20040;-86
2022/08/26 09:18:43;;;;;;;8.38;2.88;;;20.80;99.90;;;;;;5076205;28;20237;-86
2022/08/26 09:21:12;;;;;;;8.43;2.45;;;20.90;99.90;;;;;;5054254;28;20045;-86
2022/08/26 09:23:40;;;;;;;10.43;2.58;;;20.80;1.00;;;;;;5028372;28;20477;-86
2022/08/26 09:26:24;;;;;;;6.80;2.70;;;20.80;1.00;;;;;;5024232;28;20040;-86
2022/08/26 09:28:55;;;;;;;10.57;2.70;;;20.90;26.10;;;;;;5067584;28;20350;-86
2022/08/26 09:31:23;;;;;;;9.65;2.70;;;20.80;1.00;;;;;;5057695;28;20492;-88
2022/08/26 09:34:13;;;;;;;11.65;3.00;;;20.70;16.10;;;;;;5064401;28;20666;-89
2022/08/26 09:36:46;;;;;;;10.63;2.97;;;20.70;1.00;;;;;;5069656;28;20502;-87
2022/08/26 09:39:26;;;;;;;9.75;2.95;;;20.70;94.10;;;;;;5056579;28;20168;-88
2022/08/26 09:42:26;;;;;;;8.48;2.80;;;20.60;99.90;;;;;;5071789;28;20049;-88
2022/08/26 09:44:52;;;;;;;10.55;2.88;;;20.60;99.90;;;;;;5055640;28;20048;-88
2022/08/26 09:47:31;;;;;;;14.45;3.10;;;20.70;99.90;;;;;;5025843;28;20492;-87
2022/08/26 09:50:08;;;;;;;10.70;3.17;;;20.80;99.90;;;;;;5015918;28;20041;-87
2022/08/26 09:52:33;;;;;;;9.60;3.10;;;20.90;1.00;;;;;;5070006;28;20048;-88
2022/08/26 09:55:13;;;;;;;8.68;3.00;;;21.20;1.00;;;;;;5033461;28;20037;-87
2022/08/26 09:57:54;;;;;;;7.47;3.00;;;21.10;99.90;;;;;;5023095;28;20213;-88
2022/08/26 10:00:38;;;;;;;7.65;3.03;;;21.10;99.90;;;;;;5057027;28;20397;-87
2022/08/26 10:03:09;;;;;;;6.73;2.67;;;21.20;99.90;;;;;;5013365;28;20040;-88
2022/08/26 10:05:55;;;;;;;10.02;2.95;;;21.20;99.90;;;;;;5069776;28;20791;-88
2022/08/26 10:08:43;;;;;;;9.23;3.38;;;21.40;99.90;;;;;;5044700;28;20275;-88
2022/08/26 10:11:41;;;;;;;9.88;2.92;;;21.20;99.90;;;;;;5041736;28;20147;-88
2022/08/26 10:14:36;;;;;;;8.68;3.20;;;21.00;68.80;;;;;;5014784;28;20041;-88
2022/08/26 10:17:40;;;;;;;13.15;3.70;;;20.90;99.90;;;;;;5062194;28;20191;-88
2022/08/26 10:20:26;;;;;;;11.10;3.20;;;20.90;99.90;;;;;;5033784;28;20515;-88
2022/08/26 10:23:03;;;;;;;12.18;3.25;;;20.80;99.90;;;;;;5026493;28;20041;-88
2022/08/26 10:25:41;;;;;;;8.48;2.95;;;20.70;99.90;;;;;;5048227;28;20037;-87
2022/08/26 10:28:20;;;;;;;7.50;3.28;;;20.80;99.90;;;;;;5059978;28;20090;-87
2022/08/26 10:30:55;;;;;;;8.88;3.08;;;20.80;99.90;;;;;;5062695;28;20045;-87
2022/08/26 10:33:22;;;;;;;10.85;2.80;;;20.90;99.90;;;;;;5059671;28;20136;-87
2022/08/26 10:35:50;;;;;;;12.27;3.22;;;20.70;99.90;;;;;;5026389;28;20392;-88
2022/08/26 10:38:22;;;;;;;13.05;3.00;;;20.80;99.90;;;;;;5050427;28;20553;-88
2022/08/26 10:41:01;;;;;;;8.80;3.08;;;20.80;99.90;;;;;;5037113;28;20029;-88
2022/08/26 10:43:35;;;;;;;11.85;3.00;;;20.80;99.90;;;;;;5038705;28;20033;-90
2022/08/26 10:46:11;;;;;;;12.68;3.13;;;20.70;52.20;;;;;;5050384;28;20262;-89
2022/08/26 10:48:57;;;;;;;10.60;3.05;;;20.90;99.90;;;;;;5016668;28;20128;-89
2022/08/26 10:51:27;;;;;;;9.30;2.60;;;21.00;99.90;;;;;;5028690;28;20340;-88
2022/08/26 10:54:05;;;;;;;10.55;2.80;;;21.10;99.90;;;;;;5045301;28;20308;-89
2022/08/26 10:56:48;;;;;;;8.80;2.97;;;21.00;19.80;;;;;;5026843;28;20039;-87
2022/08/26 10:59:28;;;;;;;15.52;3.03;;;20.70;1.00;;;;;;5061474;28;20570;-88
2022/08/26 11:02:16;;;;;;;10.27;2.83;;;20.80;99.90;;;;;;5032465;28;20507;-88
2022/08/26 11:05:02;;;;;;;9.75;2.72;;;20.70;1.00;;;;;;5067929;28;20041;-87
2022/08/26 11:07:40;;;;;;;10.25;2.85;;;20.60;1.00;;;;;;5040093;28;20067;-88
2022/08/26 11:10:11;;;;;;;7.68;2.22;;;20.80;99.90;;;;;;5059150;28;20144;-88
2022/08/26 11:12:37;;;;;;;8.20;3.00;;;20.70;99.90;;;;;;5014987;28;20137;-86
2022/08/26 11:15:10;;;;;;;10.48;3.03;;;20.70;1.00;;;;;;5047591;28;20608;-88
2022/08/26 11:17:45;;;;;;;9.18;2.50;;;20.60;1.00;;;;;;5059586;28;20040;-89
2022/08/26 11:20:35;;;;;;;12.85;3.15;;;20.90;1.00;;;;;;5074579;28;20304;-88
2022/08/26 11:23:19;;;;;;;9.45;2.25;;;21.20;99.90;;;;;;5063711;28;20044;-88
2022/08/26 11:26:00;;;;;;;10.25;2.10;;;21.10;99.90;;;;;;5060214;28;20044;-88
2022/08/26 11:28:48;;;;;;;6.72;2.17;;;21.00;1.00;;;;;;5046154;28;20038;-87
2022/08/26 11:31:17;;;;;;;6.10;2.45;;;21.30;1.00;;;;;;5056066;28;20029;-86
2022/08/26 11:33:43;;;;;;;14.43;2.95;;;21.20;99.90;;;;;;5059976;28;20391;-87
2022/08/26 11:36:10;;;;;;;7.30;3.03;;;21.20;99.90;;;;;;5028720;28;20110;-87
2022/08/26 11:38:41;;;;;;;8.15;2.92;;;21.10;99.90;;;;;;5030061;28;20048;-88
2022/08/26 11:41:10;;;;;;;9.55;2.95;;;21.20;99.90;;;;;;5075993;28;20064;-87
2022/08/26 11:43:38;;;;;;;7.75;2.92;;;21.20;99.90;;;;;;5035033;28;20079;-87
2022/08/26 11:46:07;;;;;;;9.93;3.35;;;21.30;99.90;;;;;;5064601;28;20037;-85
2022/08/26 11:48:36;;;;;;;7.47;2.95;;;21.50;1.00;;;;;;5038870;28;20059;-86
2022/08/26 11:51:30;;;;;;;9.65;3.03;;;21.60;99.90;;;;;;5060602;28;20038;-86
2022/08/26 11:54:17;;;;;;;8.50;2.63;;;21.50;99.90;;;;;;5043356;28;20077;-88
2022/08/26 11:56:49;;;;;;;11.95;2.90;;;21.80;99.90;;;;;;5020757;28;20339;-87
2022/08/26 11:59:32;;;;;;;11.40;3.03;;;21.50;1.00;;;;;;5029524;28;20279;-87
2022/08/26 12:01:59;;;;;;;8.85;3.70;;;21.40;99.90;;;;;;5063247;28;20036;-88
2022/08/26 12:04:34;;;;;;;8.55;2.80;;;21.30;99.90;;;;;;5033373;28;20037;-86
2022/08/26 12:07:01;;;;;;;12.75;3.17;;;21.00;99.90;;;;;;5047991;28;20188;-84
2022/08/26 12:09:36;;;;;;;10.02;2.85;;;21.00;99.90;;;;;;5060974;28;20512;-86
2022/08/26 12:12:22;;;;;;;8.88;2.65;;;20.80;80.50;;;;;;5058291;28;20284;-87
2022/08/26 12:15:02;;;;;;;8.50;2.20;;;20.60;99.90;;;;;;5040330;28;20094;-86
2022/08/26 12:17:28;;;;;;;5.65;1.83;;;20.50;99.90;;;;;;5022070;28;20906;-86
2022/08/26 12:19:53;;;;;;;9.07;2.08;;;20.30;24.30;;;;;;5062594;28;20071;-87
2022/08/26 12:22:24;;;;;;;5.78;1.90;;;20.20;99.90;;;;;;5034666;28;20040;-86
2022/08/26 12:25:05;;;;;;;6.05;2.00;;;20.20;99.90;;;;;;5027966;28;20043;-86
2022/08/26 12:27:42;;;;;;;5.93;1.90;;;20.20;99.90;;;;;;5056104;28;20166;-87
2022/08/26 12:30:18;;;;;;;4.57;1.70;;;20.30;68.20;;;;;;5049060;28;20044;-86
2022/08/26 12:33:02;;;;;;;5.00;2.00;;;20.30;77.40;;;;;;5071005;28;20115;-85
2022/08/26 12:35:28;;;;;;;6.50;2.55;;;20.40;99.90;;;;;;5077805;28;20045;-85
2022/08/26 12:37:54;;;;;;;7.78;2.28;;;20.40;99.90;;;;;;5036318;28;20652;-86
2022/08/26 12:40:23;;;;;;;8.50;2.33;;;20.40;1.00;;;;;;5029701;28;20116;-87
2022/08/26 12:42:49;;;;;;;4.15;2.17;;;20.30;84.30;;;;;;5032769;28;20048;-86
2022/08/26 12:45:29;;;;;;;7.60;2.60;;;20.30;80.00;;;;;;5031229;28;20037;-84
2022/08/26 12:47:59;;;;;;;5.00;2.35;;;20.10;99.90;;;;;;5062778;28;20192;-85
2022/08/26 12:50:31;;;;;;;7.40;2.63;;;20.00;99.90;;;;;;5031125;28;20041;-86
2022/08/26 12:53:15;;;;;;;7.68;2.25;;;20.10;99.90;;;;;;5031365;28;20470;-86
2022/08/26 12:55:50;;;;;;;8.68;2.88;;;20.10;99.90;;;;;;5061454;28;20182;-86
2022/08/26 12:58:26;;;;;;;10.85;2.85;;;20.10;99.90;;;;;;5030739;28;20476;-86
2022/08/26 13:01:07;;;;;;;7.32;2.45;;;20.10;99.90;;;;;;5063632;28;20046;-86